sensor_id;sensor_type;location;lat;lon;timestamp;P1;durP1;ratioP1;P2;durP2;ratioP2
62535;SDS011;63050;47.514;18.920;2024-01-06T00:03:58;15.80;;;9.20;;
62535;SDS011;63050;47.514;18.920;2024-01-06T00:09:00;13.30;;;8.20;;
62535;SDS011;63050;47.514;18.920;2024-01-06T00:14:02;13.40;;;8.80;;
62535;SDS011;63050;47.514;18.920;2024-01-06T00:19:03;10.90;;;7.80;;
62535;SDS011;63050;47.514;18.920;2024-01-06T00:24:05;16.20;;;9.30;;
62535;SDS011;63050;47.514;18.920;2024-01-06T00:29:07;12.90;;;8.60;;
62535;SDS011;63050;47.514;18.920;2024-01-06T00:34:08;12.30;;;8.50;;
62535;SDS011;63050;47.514;18.920;2024-01-06T00:39:11;12.60;;;8.90;;
62535;SDS011;63050;47.514;18.920;2024-01-06T00:44:12;13.70;;;8.90;;
62535;SDS011;63050;47.514;18.920;2024-01-06T00:49:13;15.80;;;9.50;;
62535;SDS011;63050;47.514;18.920;2024-01-06T00:54:15;14.00;;;9.00;;
62535;SDS011;63050;47.514;18.920;2024-01-06T00:59:17;17.40;;;9.50;;
62535;SDS011;63050;47.514;18.920;2024-01-06T01:04:18;15.50;;;10.10;;
62535;SDS011;63050;47.514;18.920;2024-01-06T01:09:20;15.50;;;10.80;;
62535;SDS011;63050;47.514;18.920;2024-01-06T01:14:22;12.10;;;9.10;;
62535;SDS011;63050;47.514;18.920;2024-01-06T01:19:23;20.20;;;11.50;;
62535;SDS011;63050;47.514;18.920;2024-01-06T01:24:25;19.10;;;12.10;;
62535;SDS011;63050;47.514;18.920;2024-01-06T01:29:26;17.70;;;11.30;;
62535;SDS011;63050;47.514;18.920;2024-01-06T01:34:28;20.40;;;12.20;;
62535;SDS011;63050;47.514;18.920;2024-01-06T01:39:30;14.80;;;11.40;;
62535;SDS011;63050;47.514;18.920;2024-01-06T01:44:32;20.70;;;13.50;;
62535;SDS011;63050;47.514;18.920;2024-01-06T01:49:33;16.70;;;12.20;;
62535;SDS011;63050;47.514;18.920;2024-01-06T01:54:35;19.70;;;11.40;;
62535;SDS011;63050;47.514;18.920;2024-01-06T01:59:37;18.20;;;11.30;;
62535;SDS011;63050;47.514;18.920;2024-01-06T02:04:39;16.80;;;11.80;;
62535;SDS011;63050;47.514;18.920;2024-01-06T02:09:41;19.50;;;11.80;;
62535;SDS011;63050;47.514;18.920;2024-01-06T02:14:43;19.40;;;12.80;;
62535;SDS011;63050;47.514;18.920;2024-01-06T02:19:44;18.70;;;13.30;;
62535;SDS011;63050;47.514;18.920;2024-01-06T02:24:45;17.70;;;12.00;;
62535;SDS011;63050;47.514;18.920;2024-01-06T02:29:47;20.00;;;13.00;;
62535;SDS011;63050;47.514;18.920;2024-01-06T02:34:49;16.10;;;11.80;;
62535;SDS011;63050;47.514;18.920;2024-01-06T02:39:52;18.60;;;13.50;;
62535;SDS011;63050;47.514;18.920;2024-01-06T02:44:53;22.60;;;13.60;;
62535;SDS011;63050;47.514;18.920;2024-01-06T02:49:55;19.50;;;14.40;;
62535;SDS011;63050;47.514;18.920;2024-01-06T02:54:57;19.30;;;13.60;;
62535;SDS011;63050;47.514;18.920;2024-01-06T02:59:58;19.60;;;13.50;;
62535;SDS011;63050;47.514;18.920;2024-01-06T03:04:59;17.70;;;13.60;;
62535;SDS011;63050;47.514;18.920;2024-01-06T03:10:02;25.60;;;13.60;;
62535;SDS011;63050;47.514;18.920;2024-01-06T03:15:04;18.30;;;13.60;;
62535;SDS011;63050;47.514;18.920;2024-01-06T03:20:07;19.70;;;13.50;;
62535;SDS011;63050;47.514;18.920;2024-01-06T03:25:10;17.60;;;13.30;;
62535;SDS011;63050;47.514;18.920;2024-01-06T03:30:12;17.60;;;13.10;;
62535;SDS011;63050;47.514;18.920;2024-01-06T03:35:13;20.90;;;14.10;;
62535;SDS011;63050;47.514;18.920;2024-01-06T03:40:17;20.70;;;13.50;;
62535;SDS011;63050;47.514;18.920;2024-01-06T03:45:18;18.80;;;13.80;;
62535;SDS011;63050;47.514;18.920;2024-01-06T03:50:20;18.60;;;13.00;;
62535;SDS011;63050;47.514;18.920;2024-01-06T03:55:22;19.90;;;14.10;;
62535;SDS011;63050;47.514;18.920;2024-01-06T04:00:24;18.00;;;13.80;;
62535;SDS011;63050;47.514;18.920;2024-01-06T04:05:26;19.60;;;14.10;;
62535;SDS011;63050;47.514;18.920;2024-01-06T04:10:28;19.40;;;14.40;;
62535;SDS011;63050;47.514;18.920;2024-01-06T04:15:30;17.00;;;13.80;;
62535;SDS011;63050;47.514;18.920;2024-01-06T04:20:31;16.50;;;13.30;;
62535;SDS011;63050;47.514;18.920;2024-01-06T04:25:33;18.30;;;13.90;;
62535;SDS011;63050;47.514;18.920;2024-01-06T04:30:35;19.80;;;13.20;;
62535;SDS011;63050;47.514;18.920;2024-01-06T04:35:37;19.60;;;13.80;;
62535;SDS011;63050;47.514;18.920;2024-01-06T04:40:39;21.20;;;14.00;;
62535;SDS011;63050;47.514;18.920;2024-01-06T04:45:41;14.80;;;12.70;;
62535;SDS011;63050;47.514;18.920;2024-01-06T04:50:42;16.80;;;12.20;;
62535;SDS011;63050;47.514;18.920;2024-01-06T04:55:44;18.80;;;12.70;;
62535;SDS011;63050;47.514;18.920;2024-01-06T05:00:46;18.80;;;13.70;;
62535;SDS011;63050;47.514;18.920;2024-01-06T05:05:47;19.30;;;14.20;;
62535;SDS011;63050;47.514;18.920;2024-01-06T05:10:51;16.00;;;12.90;;
62535;SDS011;63050;47.514;18.920;2024-01-06T05:15:53;17.70;;;12.70;;
62535;SDS011;63050;47.514;18.920;2024-01-06T05:20:55;19.70;;;12.60;;
62535;SDS011;63050;47.514;18.920;2024-01-06T05:25:56;16.80;;;12.60;;
62535;SDS011;63050;47.514;18.920;2024-01-06T05:30:58;15.20;;;13.00;;
62535;SDS011;63050;47.514;18.920;2024-01-06T05:35:59;16.50;;;12.50;;
62535;SDS011;63050;47.514;18.920;2024-01-06T05:41:02;15.90;;;12.60;;
62535;SDS011;63050;47.514;18.920;2024-01-06T05:46:03;17.50;;;12.50;;
62535;SDS011;63050;47.514;18.920;2024-01-06T05:51:05;16.70;;;12.70;;
62535;SDS011;63050;47.514;18.920;2024-01-06T05:56:07;15.70;;;12.10;;
62535;SDS011;63050;47.514;18.920;2024-01-06T06:01:10;15.80;;;12.30;;
62535;SDS011;63050;47.514;18.920;2024-01-06T06:06:12;18.30;;;12.40;;
62535;SDS011;63050;47.514;18.920;2024-01-06T06:11:14;15.80;;;11.90;;
62535;SDS011;63050;47.514;18.920;2024-01-06T06:16:15;16.40;;;12.30;;
62535;SDS011;63050;47.514;18.920;2024-01-06T06:21:17;16.60;;;12.20;;
62535;SDS011;63050;47.514;18.920;2024-01-06T06:26:19;16.60;;;12.40;;
62535;SDS011;63050;47.514;18.920;2024-01-06T06:31:20;16.70;;;13.90;;
62535;SDS011;63050;47.514;18.920;2024-01-06T06:36:21;18.40;;;14.40;;
62535;SDS011;63050;47.514;18.920;2024-01-06T06:41:24;18.50;;;12.70;;
62535;SDS011;63050;47.514;18.920;2024-01-06T06:46:26;18.10;;;13.60;;
62535;SDS011;63050;47.514;18.920;2024-01-06T06:51:28;18.90;;;13.40;;
62535;SDS011;63050;47.514;18.920;2024-01-06T06:56:31;15.90;;;12.60;;
62535;SDS011;63050;47.514;18.920;2024-01-06T07:01:32;17.80;;;12.90;;
62535;SDS011;63050;47.514;18.920;2024-01-06T07:06:34;15.10;;;12.30;;
62535;SDS011;63050;47.514;18.920;2024-01-06T07:11:36;15.10;;;12.10;;
62535;SDS011;63050;47.514;18.920;2024-01-06T07:16:37;17.30;;;13.50;;
62535;SDS011;63050;47.514;18.920;2024-01-06T07:21:38;15.90;;;12.50;;
62535;SDS011;63050;47.514;18.920;2024-01-06T07:27:05;16.50;;;13.40;;
62535;SDS011;63050;47.514;18.920;2024-01-06T07:32:06;17.60;;;13.60;;
62535;SDS011;63050;47.514;18.920;2024-01-06T07:37:07;18.10;;;13.10;;
62535;SDS011;63050;47.514;18.920;2024-01-06T07:42:09;17.70;;;13.90;;
62535;SDS011;63050;47.514;18.920;2024-01-06T07:47:10;17.10;;;13.10;;
62535;SDS011;63050;47.514;18.920;2024-01-06T07:52:12;17.30;;;13.20;;
62535;SDS011;63050;47.514;18.920;2024-01-06T07:57:14;13.60;;;11.50;;
62535;SDS011;63050;47.514;18.920;2024-01-06T08:02:15;17.50;;;13.00;;
62535;SDS011;63050;47.514;18.920;2024-01-06T08:07:16;19.20;;;12.20;;
62535;SDS011;63050;47.514;18.920;2024-01-06T08:12:18;15.90;;;11.50;;
62535;SDS011;63050;47.514;18.920;2024-01-06T08:17:19;15.40;;;12.10;;
62535;SDS011;63050;47.514;18.920;2024-01-06T08:22:20;16.40;;;12.20;;
62535;SDS011;63050;47.514;18.920;2024-01-06T08:27:21;16.50;;;12.00;;
62535;SDS011;63050;47.514;18.920;2024-01-06T08:32:24;17.20;;;12.50;;
62535;SDS011;63050;47.514;18.920;2024-01-06T08:37:25;15.60;;;11.60;;
62535;SDS011;63050;47.514;18.920;2024-01-06T08:42:27;16.40;;;11.90;;
62535;SDS011;63050;47.514;18.920;2024-01-06T08:47:29;14.80;;;11.70;;
62535;SDS011;63050;47.514;18.920;2024-01-06T08:52:30;17.70;;;12.10;;
62535;SDS011;63050;47.514;18.920;2024-01-06T08:57:32;16.80;;;12.60;;
62535;SDS011;63050;47.514;18.920;2024-01-06T09:02:33;15.30;;;12.30;;
62535;SDS011;63050;47.514;18.920;2024-01-06T09:07:34;16.80;;;12.40;;
62535;SDS011;63050;47.514;18.920;2024-01-06T09:12:36;17.20;;;13.10;;
62535;SDS011;63050;47.514;18.920;2024-01-06T09:17:37;13.80;;;11.20;;
62535;SDS011;63050;47.514;18.920;2024-01-06T09:22:38;12.90;;;10.90;;
62535;SDS011;63050;47.514;18.920;2024-01-06T09:27:40;12.80;;;11.40;;
62535;SDS011;63050;47.514;18.920;2024-01-06T09:32:41;13.20;;;11.80;;
62535;SDS011;63050;47.514;18.920;2024-01-06T09:37:42;12.80;;;11.00;;
62535;SDS011;63050;47.514;18.920;2024-01-06T09:42:45;12.90;;;11.00;;
62535;SDS011;63050;47.514;18.920;2024-01-06T09:47:48;13.90;;;10.00;;
62535;SDS011;63050;47.514;18.920;2024-01-06T09:52:50;14.10;;;10.30;;
62535;SDS011;63050;47.514;18.920;2024-01-06T09:57:54;12.40;;;10.20;;
62535;SDS011;63050;47.514;18.920;2024-01-06T10:02:56;14.40;;;10.50;;
62535;SDS011;63050;47.514;18.920;2024-01-06T10:07:58;12.90;;;10.20;;
62535;SDS011;63050;47.514;18.920;2024-01-06T10:13:00;12.30;;;10.30;;
62535;SDS011;63050;47.514;18.920;2024-01-06T10:18:01;14.90;;;10.70;;
62535;SDS011;63050;47.514;18.920;2024-01-06T10:23:04;11.30;;;9.60;;
62535;SDS011;63050;47.514;18.920;2024-01-06T10:28:06;11.20;;;10.00;;
62535;SDS011;63050;47.514;18.920;2024-01-06T10:33:11;13.50;;;9.70;;
62535;SDS011;63050;47.514;18.920;2024-01-06T10:43:16;10.20;;;8.50;;
62535;SDS011;63050;47.514;18.920;2024-01-06T10:48:19;11.20;;;9.10;;
62535;SDS011;63050;47.514;18.920;2024-01-06T10:53:21;10.40;;;8.20;;
62535;SDS011;63050;47.514;18.920;2024-01-06T10:58:25;11.20;;;9.10;;
62535;SDS011;63050;47.514;18.920;2024-01-06T11:03:27;11.10;;;8.80;;
62535;SDS011;63050;47.514;18.920;2024-01-06T11:08:29;9.70;;;8.60;;
62535;SDS011;63050;47.514;18.920;2024-01-06T11:13:32;10.20;;;8.60;;
62535;SDS011;63050;47.514;18.920;2024-01-06T11:18:39;10.80;;;8.70;;
62535;SDS011;63050;47.514;18.920;2024-01-06T11:23:41;9.10;;;8.20;;
62535;SDS011;63050;47.514;18.920;2024-01-06T11:28:43;11.40;;;9.60;;
62535;SDS011;63050;47.514;18.920;2024-01-06T11:33:46;10.30;;;8.40;;
62535;SDS011;63050;47.514;18.920;2024-01-06T11:38:50;10.60;;;8.50;;
62535;SDS011;63050;47.514;18.920;2024-01-06T11:43:54;10.70;;;9.20;;
62535;SDS011;63050;47.514;18.920;2024-01-06T11:48:55;13.10;;;10.00;;
62535;SDS011;63050;47.514;18.920;2024-01-06T11:53:56;14.40;;;9.10;;
62535;SDS011;63050;47.514;18.920;2024-01-06T11:58:58;10.80;;;9.50;;
62535;SDS011;63050;47.514;18.920;2024-01-06T12:03:59;13.40;;;9.60;;
62535;SDS011;63050;47.514;18.920;2024-01-06T12:09:04;12.20;;;8.80;;
62535;SDS011;63050;47.514;18.920;2024-01-06T12:14:06;10.80;;;9.40;;
62535;SDS011;63050;47.514;18.920;2024-01-06T12:19:08;14.30;;;9.90;;
62535;SDS011;63050;47.514;18.920;2024-01-06T12:24:12;12.70;;;9.00;;
62535;SDS011;63050;47.514;18.920;2024-01-06T12:29:16;10.20;;;9.00;;
62535;SDS011;63050;47.514;18.920;2024-01-06T12:34:18;12.00;;;10.10;;
62535;SDS011;63050;47.514;18.920;2024-01-06T12:39:19;13.80;;;10.70;;
62535;SDS011;63050;47.514;18.920;2024-01-06T12:44:21;12.20;;;10.90;;
62535;SDS011;63050;47.514;18.920;2024-01-06T12:49:24;13.10;;;10.50;;
62535;SDS011;63050;47.514;18.920;2024-01-06T12:54:25;11.80;;;10.40;;
62535;SDS011;63050;47.514;18.920;2024-01-06T12:59:26;12.70;;;11.00;;
62535;SDS011;63050;47.514;18.920;2024-01-06T13:04:28;13.60;;;10.50;;
62535;SDS011;63050;47.514;18.920;2024-01-06T13:09:29;11.80;;;10.30;;
62535;SDS011;63050;47.514;18.920;2024-01-06T13:14:31;11.10;;;9.90;;
62535;SDS011;63050;47.514;18.920;2024-01-06T13:19:32;13.80;;;10.90;;
62535;SDS011;63050;47.514;18.920;2024-01-06T13:24:34;11.90;;;9.80;;
62535;SDS011;63050;47.514;18.920;2024-01-06T13:29:36;13.40;;;10.30;;
62535;SDS011;63050;47.514;18.920;2024-01-06T13:34:37;11.90;;;9.70;;
62535;SDS011;63050;47.514;18.920;2024-01-06T13:39:39;11.60;;;9.90;;
62535;SDS011;63050;47.514;18.920;2024-01-06T13:44:40;11.00;;;9.20;;
62535;SDS011;63050;47.514;18.920;2024-01-06T13:49:41;11.40;;;9.20;;
62535;SDS011;63050;47.514;18.920;2024-01-06T13:54:42;10.60;;;9.50;;
62535;SDS011;63050;47.514;18.920;2024-01-06T13:59:44;10.90;;;9.60;;
62535;SDS011;63050;47.514;18.920;2024-01-06T14:04:46;10.20;;;9.10;;
62535;SDS011;63050;47.514;18.920;2024-01-06T14:09:47;11.40;;;9.60;;
62535;SDS011;63050;47.514;18.920;2024-01-06T14:14:48;12.30;;;10.10;;
62535;SDS011;63050;47.514;18.920;2024-01-06T14:19:50;12.70;;;10.10;;
62535;SDS011;63050;47.514;18.920;2024-01-06T14:24:51;12.50;;;10.00;;
62535;SDS011;63050;47.514;18.920;2024-01-06T14:29:52;12.20;;;9.80;;
62535;SDS011;63050;47.514;18.920;2024-01-06T14:34:56;13.20;;;10.90;;
62535;SDS011;63050;47.514;18.920;2024-01-06T14:39:57;12.50;;;11.10;;
62535;SDS011;63050;47.514;18.920;2024-01-06T14:44:59;12.70;;;10.10;;
62535;SDS011;63050;47.514;18.920;2024-01-06T14:50:00;11.80;;;9.90;;
62535;SDS011;63050;47.514;18.920;2024-01-06T14:55:02;10.50;;;8.60;;
62535;SDS011;63050;47.514;18.920;2024-01-06T15:00:04;9.00;;;7.80;;
62535;SDS011;63050;47.514;18.920;2024-01-06T15:05:06;8.50;;;7.60;;
62535;SDS011;63050;47.514;18.920;2024-01-06T15:10:07;7.60;;;6.80;;
62535;SDS011;63050;47.514;18.920;2024-01-06T15:15:11;8.80;;;7.10;;
62535;SDS011;63050;47.514;18.920;2024-01-06T15:20:13;7.90;;;6.80;;
62535;SDS011;63050;47.514;18.920;2024-01-06T15:25:15;9.80;;;7.70;;
62535;SDS011;63050;47.514;18.920;2024-01-06T15:30:16;10.30;;;8.70;;
62535;SDS011;63050;47.514;18.920;2024-01-06T15:35:18;9.90;;;8.60;;
62535;SDS011;63050;47.514;18.920;2024-01-06T15:40:19;11.20;;;9.90;;
62535;SDS011;63050;47.514;18.920;2024-01-06T15:45:22;9.80;;;8.80;;
62535;SDS011;63050;47.514;18.920;2024-01-06T15:50:23;11.50;;;9.70;;
62535;SDS011;63050;47.514;18.920;2024-01-06T15:55:24;10.60;;;9.50;;
62535;SDS011;63050;47.514;18.920;2024-01-06T16:00:25;10.50;;;9.30;;
62535;SDS011;63050;47.514;18.920;2024-01-06T16:05:26;10.70;;;9.30;;
62535;SDS011;63050;47.514;18.920;2024-01-06T16:10:28;10.50;;;8.70;;
62535;SDS011;63050;47.514;18.920;2024-01-06T16:15:30;9.90;;;8.30;;
62535;SDS011;63050;47.514;18.920;2024-01-06T16:20:31;8.70;;;7.60;;
62535;SDS011;63050;47.514;18.920;2024-01-06T16:25:36;9.60;;;7.50;;
62535;SDS011;63050;47.514;18.920;2024-01-06T16:30:38;7.70;;;7.00;;
62535;SDS011;63050;47.514;18.920;2024-01-06T16:35:39;9.60;;;8.40;;
62535;SDS011;63050;47.514;18.920;2024-01-06T16:40:42;9.40;;;8.40;;
62535;SDS011;63050;47.514;18.920;2024-01-06T16:45:44;10.30;;;8.80;;
62535;SDS011;63050;47.514;18.920;2024-01-06T16:50:46;9.90;;;8.60;;
62535;SDS011;63050;47.514;18.920;2024-01-06T16:55:48;11.20;;;9.00;;
62535;SDS011;63050;47.514;18.920;2024-01-06T17:00:49;11.00;;;9.30;;
62535;SDS011;63050;47.514;18.920;2024-01-06T17:05:50;11.20;;;9.50;;
62535;SDS011;63050;47.514;18.920;2024-01-06T17:10:51;11.10;;;9.30;;
62535;SDS011;63050;47.514;18.920;2024-01-06T17:15:53;10.90;;;9.40;;
62535;SDS011;63050;47.514;18.920;2024-01-06T17:20:55;13.00;;;10.20;;
62535;SDS011;63050;47.514;18.920;2024-01-06T17:25:56;10.20;;;8.80;;
62535;SDS011;63050;47.514;18.920;2024-01-06T17:30:57;11.80;;;9.40;;
62535;SDS011;63050;47.514;18.920;2024-01-06T17:36:00;10.60;;;8.60;;
62535;SDS011;63050;47.514;18.920;2024-01-06T17:41:02;10.80;;;9.20;;
62535;SDS011;63050;47.514;18.920;2024-01-06T17:46:05;11.90;;;9.40;;
62535;SDS011;63050;47.514;18.920;2024-01-06T17:51:06;9.40;;;7.90;;
62535;SDS011;63050;47.514;18.920;2024-01-06T17:56:07;9.00;;;7.80;;
62535;SDS011;63050;47.514;18.920;2024-01-06T18:01:08;10.50;;;7.60;;
62535;SDS011;63050;47.514;18.920;2024-01-06T18:06:09;10.00;;;8.10;;
62535;SDS011;63050;47.514;18.920;2024-01-06T18:11:10;11.30;;;9.60;;
62535;SDS011;63050;47.514;18.920;2024-01-06T18:16:12;11.00;;;8.70;;
62535;SDS011;63050;47.514;18.920;2024-01-06T18:21:39;10.50;;;8.30;;
62535;SDS011;63050;47.514;18.920;2024-01-06T18:26:40;11.00;;;9.00;;
62535;SDS011;63050;47.514;18.920;2024-01-06T18:31:41;10.00;;;8.70;;
62535;SDS011;63050;47.514;18.920;2024-01-06T18:36:42;12.50;;;8.50;;
62535;SDS011;63050;47.514;18.920;2024-01-06T18:41:43;11.60;;;9.70;;
62535;SDS011;63050;47.514;18.920;2024-01-06T18:46:45;9.30;;;7.90;;
62535;SDS011;63050;47.514;18.920;2024-01-06T18:51:46;10.40;;;8.00;;
62535;SDS011;63050;47.514;18.920;2024-01-06T18:56:47;10.30;;;8.70;;
62535;SDS011;63050;47.514;18.920;2024-01-06T19:01:49;9.90;;;8.40;;
62535;SDS011;63050;47.514;18.920;2024-01-06T19:06:50;12.10;;;9.40;;
62535;SDS011;63050;47.514;18.920;2024-01-06T19:11:52;10.10;;;8.60;;
62535;SDS011;63050;47.514;18.920;2024-01-06T19:16:53;10.90;;;7.80;;
62535;SDS011;63050;47.514;18.920;2024-01-06T19:21:55;9.90;;;8.20;;
62535;SDS011;63050;47.514;18.920;2024-01-06T19:26:56;10.30;;;7.80;;
62535;SDS011;63050;47.514;18.920;2024-01-06T19:31:57;9.50;;;8.10;;
62535;SDS011;63050;47.514;18.920;2024-01-06T19:36:58;10.00;;;8.20;;
62535;SDS011;63050;47.514;18.920;2024-01-06T19:42:00;9.80;;;8.00;;
62535;SDS011;63050;47.514;18.920;2024-01-06T19:47:02;10.10;;;8.20;;
62535;SDS011;63050;47.514;18.920;2024-01-06T19:52:03;10.90;;;9.50;;
62535;SDS011;63050;47.514;18.920;2024-01-06T19:57:06;10.30;;;8.10;;
62535;SDS011;63050;47.514;18.920;2024-01-06T20:02:08;10.80;;;8.70;;
62535;SDS011;63050;47.514;18.920;2024-01-06T20:07:09;10.90;;;9.20;;
62535;SDS011;63050;47.514;18.920;2024-01-06T20:12:11;10.70;;;8.60;;
62535;SDS011;63050;47.514;18.920;2024-01-06T20:17:13;10.40;;;8.20;;
62535;SDS011;63050;47.514;18.920;2024-01-06T20:22:15;8.40;;;6.90;;
62535;SDS011;63050;47.514;18.920;2024-01-06T20:27:17;9.30;;;8.00;;
62535;SDS011;63050;47.514;18.920;2024-01-06T20:32:18;10.00;;;8.60;;
62535;SDS011;63050;47.514;18.920;2024-01-06T20:37:20;10.50;;;8.20;;
62535;SDS011;63050;47.514;18.920;2024-01-06T20:42:21;9.00;;;7.50;;
62535;SDS011;63050;47.514;18.920;2024-01-06T20:47:23;10.70;;;8.20;;
62535;SDS011;63050;47.514;18.920;2024-01-06T20:52:25;10.10;;;8.10;;
62535;SDS011;63050;47.514;18.920;2024-01-06T20:57:27;10.00;;;8.40;;
62535;SDS011;63050;47.514;18.920;2024-01-06T21:02:28;11.00;;;8.50;;
62535;SDS011;63050;47.514;18.920;2024-01-06T21:07:30;11.70;;;9.70;;
62535;SDS011;63050;47.514;18.920;2024-01-06T21:12:34;13.40;;;10.70;;
62535;SDS011;63050;47.514;18.920;2024-01-06T21:17:36;13.50;;;11.00;;
62535;SDS011;63050;47.514;18.920;2024-01-06T21:22:37;10.90;;;8.90;;
62535;SDS011;63050;47.514;18.920;2024-01-06T21:27:38;11.60;;;8.90;;
62535;SDS011;63050;47.514;18.920;2024-01-06T21:32:40;11.60;;;8.90;;
62535;SDS011;63050;47.514;18.920;2024-01-06T21:37:41;10.80;;;9.10;;
62535;SDS011;63050;47.514;18.920;2024-01-06T21:42:42;10.00;;;8.60;;
62535;SDS011;63050;47.514;18.920;2024-01-06T21:47:45;10.60;;;8.50;;
62535;SDS011;63050;47.514;18.920;2024-01-06T21:52:46;10.60;;;8.80;;
62535;SDS011;63050;47.514;18.920;2024-01-06T21:57:47;13.80;;;8.80;;
62535;SDS011;63050;47.514;18.920;2024-01-06T22:02:48;12.60;;;9.50;;
62535;SDS011;63050;47.514;18.920;2024-01-06T22:07:51;10.40;;;8.70;;
62535;SDS011;63050;47.514;18.920;2024-01-06T22:12:53;12.70;;;9.50;;
62535;SDS011;63050;47.514;18.920;2024-01-06T22:17:55;10.90;;;9.20;;
62535;SDS011;63050;47.514;18.920;2024-01-06T22:22:57;11.30;;;9.10;;
62535;SDS011;63050;47.514;18.920;2024-01-06T22:27:58;11.90;;;9.70;;
62535;SDS011;63050;47.514;18.920;2024-01-06T22:32:59;11.80;;;9.70;;
62535;SDS011;63050;47.514;18.920;2024-01-06T22:38:01;11.30;;;9.50;;
62535;SDS011;63050;47.514;18.920;2024-01-06T22:43:03;12.20;;;9.50;;
62535;SDS011;63050;47.514;18.920;2024-01-06T22:48:06;10.40;;;8.40;;
62535;SDS011;63050;47.514;18.920;2024-01-06T22:53:08;10.60;;;8.90;;
62535;SDS011;63050;47.514;18.920;2024-01-06T22:58:09;11.00;;;9.00;;
62535;SDS011;63050;47.514;18.920;2024-01-06T23:03:10;10.80;;;8.70;;
62535;SDS011;63050;47.514;18.920;2024-01-06T23:08:12;12.00;;;9.20;;
62535;SDS011;63050;47.514;18.920;2024-01-06T23:13:13;11.70;;;10.10;;
62535;SDS011;63050;47.514;18.920;2024-01-06T23:18:15;12.30;;;9.80;;
62535;SDS011;63050;47.514;18.920;2024-01-06T23:23:16;10.80;;;9.40;;
62535;SDS011;63050;47.514;18.920;2024-01-06T23:28:18;13.80;;;11.50;;
62535;SDS011;63050;47.514;18.920;2024-01-06T23:33:20;14.40;;;11.30;;
62535;SDS011;63050;47.514;18.920;2024-01-06T23:38:21;13.60;;;10.90;;
62535;SDS011;63050;47.514;18.920;2024-01-06T23:43:22;15.90;;;11.40;;
62535;SDS011;63050;47.514;18.920;2024-01-06T23:48:24;15.20;;;11.60;;
62535;SDS011;63050;47.514;18.920;2024-01-06T23:53:27;15.20;;;11.20;;
62535;SDS011;63050;47.514;18.920;2024-01-06T23:58:28;15.00;;;10.90;;
